This is the latest recevied weather packets stored in our database for station/object DK0KTL-4. If no packets are shown the sender has not sent any weather packets the latest 10 day(s).
| Time | Temp. | Humidity | Pressure | Rain* | Wind** | Luminosity | Snow |
|---|---|---|---|---|---|---|---|
| 1777867442 | 12.78° C | 73% | 1011.7 hPa | 0 mm | - | - | - |
| 1777866841 | 12.22° C | 74% | 1011.7 hPa | 0 mm | - | - | - |
| 1777845221 | 15.56° C | 65% | 1011.1 hPa | 0 mm | - | - | - |
| 1777844320 | 16.11° C | 63% | 1011.1 hPa | 0 mm | - | - | - |
| 1777843419 | 16.11° C | 61% | 1011 hPa | 0 mm | - | - | - |
| 1777840719 | 17.78° C | 58% | 1010.7 hPa | 0 mm | - | - | - |
| 1777840116 | 17.78° C | 57% | 1010.6 hPa | 0 mm | - | - | - |
| 1777839515 | 18.33° C | 56% | 1010.5 hPa | 0 mm | - | - | - |
| 1777839215 | 18.33° C | 53% | 1010.4 hPa | 0 mm | - | - | - |
| 1777833810 | 21.11° C | 44% | 1010.2 hPa | 0 mm | - | - | - |
| 1777832608 | 21.67° C | 44% | 1010.1 hPa | 0 mm | - | - | - |
| 1777832308 | 21.67° C | 43% | 1009.8 hPa | 0 mm | - | - | - |
| 1777827203 | 24.44° C | 37% | 1009.8 hPa | 0 mm | - | - | - |
| 1777815192 | 27.22° C | 26% | 1010.7 hPa | 0 mm | - | - | - |
| 1777810988 | 27.78° C | 29% | 1011.3 hPa | 0 mm | - | - | - |
| 1777805282 | 26.11° C | 31% | 1012.3 hPa | 0 mm | - | - | - |
| 1777804682 | 26.11° C | 32% | 1012.4 hPa | 0 mm | - | - | - |
| 1777804381 | 26.11° C | 30% | 1012.5 hPa | 0 mm | - | - | - |
| 1777803781 | 26.11° C | 30% | 1012.5 hPa | 0 mm | - | - | - |
| 1777802880 | 26.11° C | 29% | 1012.8 hPa | 0 mm | - | - | - |
| 1777801979 | 25.56° C | 35% | 1012.9 hPa | 0 mm | - | - | - |
| 1777801078 | 25° C | 35% | 1013.2 hPa | 0 mm | - | - | - |
| 1777800778 | 24.44° C | 32% | 1013.2 hPa | 0 mm | - | - | - |
| 1777800477 | 24.44° C | 35% | 1013.3 hPa | 0 mm | - | - | - |
| 1777799877 | 24.44° C | 34% | 1013.4 hPa | 0 mm | - | - | - |
* Rain latest hour (hover to see other rain measurements)
** Current wind speed in m/s (hover to see current wind gust speed)